Time;durP1;ratioP1;P1;durP2;ratioP2;P2;SDS_P1;SDS_P2;PMS_P1;PMS_P2;Temp;Humidity;BMP_temperature;BMP_pressure;BME280_temperature;BME280_humidity;BME280_pressure;Samples;Min_cycle;Max_cycle;Signal;HPM_P1;HPM_P2
2022/12/22 03:27:36;;;;;;;22.75;18.02;;;;;;;;;;4974785;28;20298;-65
2022/12/22 03:30:03;;;;;;;27.53;17.97;;;;;;;;;;4974648;28;20211;-65
2022/12/22 03:32:32;;;;;;;26.00;17.30;;;;;;;;;;4974697;28;20535;-65
2022/12/22 03:34:59;;;;;;;22.70;16.45;;;;;;;;;;4975147;28;20201;-64
2022/12/22 03:37:26;;;;;;;22.00;16.98;;;;;;;;;;4974543;28;20293;-64
2022/12/22 03:39:53;;;;;;;28.17;17.48;;;;;;;;;;4974354;28;20225;-65
2022/12/22 03:47:52;;;;;;;26.57;17.57;;;;;;;;;;4974725;28;20184;-65
2022/12/22 03:50:19;;;;;;;27.30;17.43;;;;;;;;;;4975117;28;20878;-65
2022/12/22 03:52:46;;;;;;;25.47;16.10;;;;;;;;;;4974702;28;20460;-65
2022/12/22 03:55:14;;;;;;;29.45;18.02;;;;;;;;;;4974739;28;20445;-65
2022/12/22 03:57:41;;;;;;;26.33;17.80;;;;;;;;;;4974878;28;20194;-65
2022/12/22 04:00:08;;;;;;;29.20;17.60;;;;;;;;;;4974705;28;20488;-65
2022/12/22 04:02:36;;;;;;;28.53;17.43;;;;;;;;;;4974069;28;20453;-64
2022/12/22 04:05:04;;;;;;;27.10;17.70;;;;;;;;;;4974973;28;20449;-64
2022/12/22 04:07:32;;;;;;;27.83;17.40;;;;;;;;;;4974604;28;20798;-64
2022/12/22 04:12:56;;;;;;;31.40;18.37;;;;;;;;;;4974549;28;20535;-65
2022/12/22 04:15:24;;;;;;;26.27;17.87;;;;;;;;;;4974803;28;20429;-65
2022/12/22 04:17:51;;;;;;;25.47;18.20;;;;;;;;;;4974472;28;20448;-65
2022/12/22 04:20:20;;;;;;;29.33;18.60;;;;;;;;;;4974107;28;20982;-66
2022/12/22 04:22:48;;;;;;;28.17;19.17;;;;;;;;;;4974433;28;20206;-65
2022/12/22 04:25:15;;;;;;;28.87;16.87;;;;;;;;;;4974454;28;20436;-65
2022/12/22 04:27:42;;;;;;;30.10;17.73;;;;;;;;;;4974958;28;20445;-65
2022/12/22 04:30:10;;;;;;;30.70;19.10;;;;;;;;;;4974373;28;20448;-65
2022/12/22 04:32:37;;;;;;;30.73;18.65;;;;;;;;;;4974064;28;20455;-65
2022/12/22 04:35:05;;;;;;;31.08;19.58;;;;;;;;;;4974123;28;20194;-65
2022/12/22 04:37:34;;;;;;;27.45;16.80;;;;;;;;;;4974355;28;20201;-65
2022/12/22 04:40:01;;;;;;;29.57;19.30;;;;;;;;;;4974281;28;20218;-66
2022/12/22 04:42:28;;;;;;;29.52;18.67;;;;;;;;;;4974128;28;20441;-67
2022/12/22 04:44:55;;;;;;;31.80;17.87;;;;;;;;;;4974331;28;20248;-67
2022/12/22 04:47:22;;;;;;;30.17;17.97;;;;;;;;;;4974334;28;20468;-67
2022/12/22 04:49:50;;;;;;;31.40;19.73;;;;;;;;;;4974136;28;20471;-66
2022/12/22 04:52:17;;;;;;;28.40;19.03;;;;;;;;;;4972515;28;20455;-67
2022/12/22 04:54:45;;;;;;;29.20;19.00;;;;;;;;;;4954065;28;20438;-66
2022/12/22 04:57:12;;;;;;;32.30;18.27;;;;;;;;;;4957080;28;20446;-66
2022/12/22 04:59:40;;;;;;;34.73;19.20;;;;;;;;;;4957218;28;20221;-66
2022/12/22 05:02:07;;;;;;;93.37;20.07;;;;;;;;;;4957433;28;20442;-66
2022/12/22 05:04:34;;;;;;;35.57;19.27;;;;;;;;;;4956876;28;20474;-66
2022/12/22 05:07:01;;;;;;;33.30;18.55;;;;;;;;;;4957151;28;20454;-66
2022/12/22 05:09:28;;;;;;;28.60;17.77;;;;;;;;;;4957410;28;20206;-66
2022/12/22 05:11:57;;;;;;;31.00;19.15;;;;;;;;;;4957284;28;20456;-66
2022/12/22 05:14:24;;;;;;;32.90;17.67;;;;;;;;;;4956767;28;20209;-67
2022/12/22 05:16:51;;;;;;;36.22;18.70;;;;;;;;;;4957501;28;20811;-67
2022/12/22 05:19:18;;;;;;;27.53;17.63;;;;;;;;;;4957267;28;20232;-66
2022/12/22 05:21:46;;;;;;;31.77;18.43;;;;;;;;;;4957429;28;20450;-67
2022/12/22 05:24:13;;;;;;;30.80;17.65;;;;;;;;;;4957477;28;20434;-66
2022/12/22 05:26:40;;;;;;;27.98;18.48;;;;;;;;;;4957516;28;20206;-67
2022/12/22 05:29:09;;;;;;;35.22;18.38;;;;;;;;;;4957491;28;20285;-67
2022/12/22 05:31:36;;;;;;;32.00;18.80;;;;;;;;;;4957594;28;20556;-66
2022/12/22 05:34:03;;;;;;;31.27;17.55;;;;;;;;;;4958010;28;20467;-67
2022/12/22 05:36:30;;;;;;;36.00;17.80;;;;;;;;;;4957374;28;20205;-66
2022/12/22 05:38:57;;;;;;;30.70;17.45;;;;;;;;;;4956775;28;20446;-66
2022/12/22 05:41:25;;;;;;;30.33;17.45;;;;;;;;;;4957015;28;20194;-66
2022/12/22 05:43:52;;;;;;;33.57;16.70;;;;;;;;;;4957291;28;20208;-66
2022/12/22 05:46:21;;;;;;;34.07;18.27;;;;;;;;;;4957163;28;20450;-66
2022/12/22 05:48:48;;;;;;;30.27;16.77;;;;;;;;;;4957134;28;20497;-67
2022/12/22 05:51:15;;;;;;;38.28;17.25;;;;;;;;;;4957398;28;20793;-67
2022/12/22 05:53:43;;;;;;;41.87;18.27;;;;;;;;;;4956742;28;20293;-67
2022/12/22 05:56:11;;;;;;;58.42;19.20;;;;;;;;;;4956900;28;20453;-66
2022/12/22 05:58:39;;;;;;;36.40;17.37;;;;;;;;;;4956477;28;20202;-67
2022/12/22 06:01:06;;;;;;;32.65;16.65;;;;;;;;;;4956616;28;20485;-66
2022/12/22 06:03:34;;;;;;;30.60;16.80;;;;;;;;;;4957159;28;20587;-67
2022/12/22 06:06:02;;;;;;;24.70;15.57;;;;;;;;;;4956977;28;20445;-67
2022/12/22 06:08:29;;;;;;;35.07;17.97;;;;;;;;;;4956558;28;20542;-66
2022/12/22 06:10:57;;;;;;;29.20;17.53;;;;;;;;;;4956884;28;20461;-67
2022/12/22 06:13:24;;;;;;;81.25;20.75;;;;;;;;;;4956977;28;20476;-66
2022/12/22 06:15:51;;;;;;;24.63;15.55;;;;;;;;;;4956482;28;20206;-66
2022/12/22 06:18:18;;;;;;;29.37;15.20;;;;;;;;;;4956917;28;20220;-66
2022/12/22 06:20:47;;;;;;;20.47;15.03;;;;;;;;;;4957254;28;20482;-66
2022/12/22 06:23:14;;;;;;;27.60;15.50;;;;;;;;;;4957293;28;20446;-67
2022/12/22 06:25:41;;;;;;;29.40;16.37;;;;;;;;;;4956400;28;20966;-67
2022/12/22 06:28:09;;;;;;;28.07;17.40;;;;;;;;;;4957025;28;20450;-66
2022/12/22 06:30:36;;;;;;;27.60;16.60;;;;;;;;;;4956711;28;20456;-66
2022/12/22 06:33:03;;;;;;;34.23;16.70;;;;;;;;;;4956640;28;20452;-66
2022/12/22 06:35:30;;;;;;;35.07;17.77;;;;;;;;;;4956221;28;20947;-65
2022/12/22 06:37:59;;;;;;;36.30;17.60;;;;;;;;;;4956973;28;20469;-65
2022/12/22 06:40:26;;;;;;;34.93;18.93;;;;;;;;;;4956774;28;20657;-64
2022/12/22 06:43:07;;;;;;;31.02;18.55;;;;;;;;;;4956168;28;20545;-64
2022/12/22 06:45:34;;;;;;;156.32;25.83;;;;;;;;;;4956124;28;20195;-65
2022/12/22 06:48:02;;;;;;;39.37;18.27;;;;;;;;;;4956356;28;20208;-64
2022/12/22 06:50:29;;;;;;;35.13;18.70;;;;;;;;;;4956211;28;20458;-65
2022/12/22 06:52:56;;;;;;;33.33;17.00;;;;;;;;;;4956829;28;20446;-65
2022/12/22 06:55:25;;;;;;;33.42;17.70;;;;;;;;;;4956423;28;20198;-64
2022/12/22 06:57:52;;;;;;;31.27;17.03;;;;;;;;;;4955892;28;20194;-65
2022/12/22 07:00:19;;;;;;;34.07;17.17;;;;;;;;;;4956362;28;20564;-65
2022/12/22 07:02:47;;;;;;;31.33;17.70;;;;;;;;;;4955906;28;20499;-65
2022/12/22 07:05:15;;;;;;;34.20;16.93;;;;;;;;;;4955739;28;20453;-64
2022/12/22 07:07:42;;;;;;;29.80;16.40;;;;;;;;;;4955909;28;20458;-65
2022/12/22 07:10:10;;;;;;;32.92;17.30;;;;;;;;;;4956229;28;20450;-64
2022/12/22 07:12:38;;;;;;;35.10;17.50;;;;;;;;;;4955865;28;20195;-64
2022/12/22 07:15:06;;;;;;;35.23;17.00;;;;;;;;;;4955875;28;20437;-64
2022/12/22 07:17:33;;;;;;;45.88;18.27;;;;;;;;;;4955935;28;20450;-65
2022/12/22 07:20:00;;;;;;;38.00;17.77;;;;;;;;;;4955187;28;20228;-65
2022/12/22 07:22:27;;;;;;;39.50;16.93;;;;;;;;;;4955755;28;20198;-65
2022/12/22 07:24:55;;;;;;;37.33;16.25;;;;;;;;;;4955831;28;20549;-65
2022/12/22 07:27:22;;;;;;;51.10;18.90;;;;;;;;;;4955678;28;20194;-65
2022/12/22 07:29:50;;;;;;;49.63;18.17;;;;;;;;;;4955430;28;20541;-65
2022/12/22 07:32:17;;;;;;;75.95;21.23;;;;;;;;;;4955672;28;20198;-64
2022/12/22 07:34:45;;;;;;;66.10;20.10;;;;;;;;;;4956311;28;20199;-64
2022/12/22 07:37:12;;;;;;;71.83;19.03;;;;;;;;;;4955545;28;20480;-64
2022/12/22 07:39:39;;;;;;;73.00;20.20;;;;;;;;;;4955746;28;20454;-64
2022/12/22 07:44:53;;;;;;;63.33;20.43;;;;;;;;;;4955391;29;20441;-64
2022/12/22 07:47:20;;;;;;;48.17;17.07;;;;;;;;;;4955099;28;20446;-65
2022/12/22 07:52:32;;;;;;;48.57;17.87;;;;;;;;;;4955315;29;20404;-64
2022/12/22 07:54:59;;;;;;;48.38;17.35;;;;;;;;;;4955638;28;20442;-64
2022/12/22 07:57:26;;;;;;;48.88;17.08;;;;;;;;;;4955350;28;20680;-64
2022/12/22 07:59:55;;;;;;;51.30;18.43;;;;;;;;;;4955787;28;20535;-64
2022/12/22 08:02:22;;;;;;;46.00;17.87;;;;;;;;;;4954820;28;20450;-64
2022/12/22 08:04:49;;;;;;;41.03;16.70;;;;;;;;;;4956246;28;20548;-64
2022/12/22 08:07:16;;;;;;;48.33;16.87;;;;;;;;;;4955421;28;20452;-66
2022/12/22 08:09:43;;;;;;;48.73;18.40;;;;;;;;;;4955284;28;20452;-64
2022/12/22 08:12:11;;;;;;;48.75;16.55;;;;;;;;;;4955404;28;20446;-64
2022/12/22 08:14:38;;;;;;;51.27;17.80;;;;;;;;;;4954999;28;20205;-64
2022/12/22 08:17:06;;;;;;;58.60;17.70;;;;;;;;;;4955070;28;20442;-64
2022/12/22 08:19:34;;;;;;;58.43;17.80;;;;;;;;;;4954889;28;21042;-63
2022/12/22 08:22:01;;;;;;;61.80;18.03;;;;;;;;;;4955048;28;20469;-66
2022/12/22 08:24:28;;;;;;;50.75;16.33;;;;;;;;;;4955074;28;20447;-63
2022/12/22 08:26:56;;;;;;;61.65;17.90;;;;;;;;;;4954675;28;20199;-63
2022/12/22 08:29:25;;;;;;;54.10;17.20;;;;;;;;;;4955293;28;20573;-63
2022/12/22 08:31:52;;;;;;;57.53;17.77;;;;;;;;;;4957937;28;20449;-64
2022/12/22 08:34:20;;;;;;;38.87;15.60;;;;;;;;;;4958422;28;20675;-63
2022/12/22 08:36:49;;;;;;;40.40;15.03;;;;;;;;;;4958273;28;20442;-63
2022/12/22 08:39:17;;;;;;;52.60;16.70;;;;;;;;;;4958682;28;20446;-64
2022/12/22 08:41:50;;;;;;;43.17;14.53;;;;;;;;;;4958634;28;20484;-64
2022/12/22 08:44:18;;;;;;;50.92;14.75;;;;;;;;;;4958602;28;20991;-63
2022/12/22 08:46:45;;;;;;;45.53;16.70;;;;;;;;;;4958459;28;20654;-64
2022/12/22 08:49:13;;;;;;;41.50;14.10;;;;;;;;;;4959015;28;20472;-63
2022/12/22 08:51:41;;;;;;;49.77;15.53;;;;;;;;;;4958162;28;20450;-65
2022/12/22 08:54:09;;;;;;;49.23;16.47;;;;;;;;;;4958365;28;20441;-64
2022/12/22 08:56:36;;;;;;;45.00;14.73;;;;;;;;;;4958782;28;20447;-64
2022/12/22 08:59:06;;;;;;;41.50;16.80;;;;;;;;;;4958284;28;20479;-64
2022/12/22 09:01:34;;;;;;;50.60;14.57;;;;;;;;;;4958109;28;20564;-64
2022/12/22 09:04:01;;;;;;;38.67;15.30;;;;;;;;;;4957480;28;20473;-65
2022/12/22 09:06:28;;;;;;;51.10;15.83;;;;;;;;;;4957957;28;20449;-63
2022/12/22 09:08:57;;;;;;;47.88;17.48;;;;;;;;;;4957728;28;20450;-63
2022/12/22 09:11:25;;;;;;;54.50;15.60;;;;;;;;;;4958077;28;20572;-63
2022/12/22 09:13:53;;;;;;;46.73;16.73;;;;;;;;;;4958153;28;20508;-65
2022/12/22 09:16:21;;;;;;;40.33;16.15;;;;;;;;;;4957992;28;20446;-65
2022/12/22 09:18:48;;;;;;;52.70;15.83;;;;;;;;;;4957991;28;20582;-65
2022/12/22 09:21:16;;;;;;;42.65;17.15;;;;;;;;;;4957620;28;20987;-64
2022/12/22 09:23:43;;;;;;;37.05;16.52;;;;;;;;;;4957554;28;20206;-64
2022/12/22 09:26:13;;;;;;;40.83;15.63;;;;;;;;;;4957862;28;20198;-63
2022/12/22 09:28:40;;;;;;;39.87;14.60;;;;;;;;;;4957379;28;20454;-65
2022/12/22 09:31:08;;;;;;;44.83;15.45;;;;;;;;;;4957831;28;20449;-65
2022/12/22 09:33:36;;;;;;;58.17;25.17;;;;;;;;;;4957756;28;20262;-64
2022/12/22 09:36:06;;;;;;;41.65;16.02;;;;;;;;;;4957518;28;20234;-64
2022/12/22 09:38:33;;;;;;;46.60;17.00;;;;;;;;;;4957523;28;20210;-64
2022/12/22 09:41:07;;;;;;;49.30;18.37;;;;;;;;;;4957491;28;20576;-64
2022/12/22 09:43:35;;;;;;;45.90;16.10;;;;;;;;;;4956677;28;20442;-64
2022/12/22 09:46:02;;;;;;;53.10;17.43;;;;;;;;;;4957587;28;20446;-64
2022/12/22 09:48:34;;;;;;;38.45;15.70;;;;;;;;;;4957378;28;20454;-65
2022/12/22 09:51:02;;;;;;;41.80;14.97;;;;;;;;;;4957907;28;20277;-64
2022/12/22 09:53:29;;;;;;;38.67;15.40;;;;;;;;;;4957819;28;20438;-64
2022/12/22 09:55:56;;;;;;;45.73;15.83;;;;;;;;;;4957252;28;21035;-66
2022/12/22 09:58:26;;;;;;;44.30;16.37;;;;;;;;;;4957177;28;20560;-64
2022/12/22 10:00:57;;;;;;;45.60;17.03;;;;;;;;;;4957149;28;20486;-64
2022/12/22 10:03:34;;;;;;;37.77;16.37;;;;;;;;;;4957261;28;20470;-64
2022/12/22 10:06:06;;;;;;;41.50;16.40;;;;;;;;;;4957131;28;20521;-64
2022/12/22 10:08:35;;;;;;;37.30;16.33;;;;;;;;;;4956868;28;20449;-64
2022/12/22 10:11:02;;;;;;;42.67;17.40;;;;;;;;;;4956899;28;20449;-64
2022/12/22 10:13:29;;;;;;;40.47;17.20;;;;;;;;;;4956575;28;20446;-64
2022/12/22 10:15:58;;;;;;;39.53;17.60;;;;;;;;;;4956628;28;20452;-65
2022/12/22 10:18:26;;;;;;;32.60;14.77;;;;;;;;;;4956776;28;20446;-65
2022/12/22 10:21:08;;;;;;;37.40;17.05;;;;;;;;;;4956415;28;20490;-64
2022/12/22 10:23:37;;;;;;;31.00;15.90;;;;;;;;;;4957157;28;20285;-64
2022/12/22 10:26:07;;;;;;;34.03;16.42;;;;;;;;;;4956629;28;20449;-64
2022/12/22 10:28:37;;;;;;;40.70;17.23;;;;;;;;;;4956624;28;20190;-64
2022/12/22 10:31:14;;;;;;;35.37;16.70;;;;;;;;;;4956657;28;20469;-64
2022/12/22 10:33:42;;;;;;;28.67;15.00;;;;;;;;;;4956727;28;20454;-65
2022/12/22 10:36:10;;;;;;;28.63;14.50;;;;;;;;;;4956258;28;20461;-65
2022/12/22 10:38:38;;;;;;;35.33;17.20;;;;;;;;;;4956381;28;20443;-66
2022/12/22 10:41:13;;;;;;;27.83;14.88;;;;;;;;;;4956103;28;20480;-65
2022/12/22 10:43:46;;;;;;;29.27;15.20;;;;;;;;;;4957066;28;20194;-65
2022/12/22 10:46:15;;;;;;;25.83;14.40;;;;;;;;;;4956441;28;20457;-65
2022/12/22 10:48:42;;;;;;;26.30;13.97;;;;;;;;;;4956130;28;20451;-65
2022/12/22 10:51:10;;;;;;;22.70;13.07;;;;;;;;;;4955960;28;20466;-65
2022/12/22 10:53:39;;;;;;;26.57;14.60;;;;;;;;;;4956027;28;20541;-64
2022/12/22 10:56:07;;;;;;;26.00;15.23;;;;;;;;;;4956183;28;20450;-65
2022/12/22 10:58:46;;;;;;;28.43;15.37;;;;;;;;;;4956711;28;20529;-65
2022/12/22 11:01:23;;;;;;;24.03;15.13;;;;;;;;;;4956036;28;20473;-65
2022/12/22 11:03:50;;;;;;;25.87;14.87;;;;;;;;;;4955948;28;20485;-65
2022/12/22 11:06:17;;;;;;;23.33;14.97;;;;;;;;;;4956100;28;20449;-65
2022/12/22 11:08:45;;;;;;;26.30;14.07;;;;;;;;;;4955886;28;20451;-65
2022/12/22 11:11:17;;;;;;;21.83;14.07;;;;;;;;;;4955970;28;20441;-65
2022/12/22 11:13:48;;;;;;;25.90;16.23;;;;;;;;;;4955543;28;20430;-65
2022/12/22 11:16:21;;;;;;;24.50;14.53;;;;;;;;;;4956702;28;20525;-65
2022/12/22 11:18:56;;;;;;;26.10;15.83;;;;;;;;;;4955450;28;20439;-65
2022/12/22 11:21:28;;;;;;;23.07;13.70;;;;;;;;;;4955905;28;20786;-65
2022/12/22 11:24:02;;;;;;;24.80;15.00;;;;;;;;;;4955843;28;20443;-65
2022/12/22 11:26:33;;;;;;;21.23;14.70;;;;;;;;;;4955730;28;20942;-65
2022/12/22 11:29:13;;;;;;;20.63;14.20;;;;;;;;;;4955832;28;20489;-65
2022/12/22 11:31:49;;;;;;;20.70;13.60;;;;;;;;;;4955885;28;20452;-66
2022/12/22 11:34:22;;;;;;;21.20;14.00;;;;;;;;;;4955914;28;20484;-65
2022/12/22 11:36:59;;;;;;;18.45;13.27;;;;;;;;;;4955217;28;20430;-65
2022/12/22 11:39:35;;;;;;;22.00;13.90;;;;;;;;;;4955835;28;20193;-66
2022/12/22 11:42:06;;;;;;;19.20;13.67;;;;;;;;;;4955189;28;20469;-65
2022/12/22 11:44:40;;;;;;;18.93;13.80;;;;;;;;;;4955080;28;20448;-66
2022/12/22 11:47:14;;;;;;;19.60;13.57;;;;;;;;;;4955491;28;20528;-66
2022/12/22 11:49:49;;;;;;;19.20;13.40;;;;;;;;;;4955617;28;20444;-66
2022/12/22 11:52:31;;;;;;;26.03;14.83;;;;;;;;;;4955353;28;20521;-66
2022/12/22 11:55:12;;;;;;;18.13;12.53;;;;;;;;;;4955344;28;20429;-66
2022/12/22 11:57:44;;;;;;;21.60;14.27;;;;;;;;;;4954946;28;20449;-66
2022/12/22 12:00:13;;;;;;;19.43;12.00;;;;;;;;;;4954914;28;20438;-65
2022/12/22 12:02:50;;;;;;;17.10;13.07;;;;;;;;;;4954732;28;20548;-66
2022/12/22 12:05:23;;;;;;;21.00;14.27;;;;;;;;;;4956016;28;20454;-65
2022/12/22 12:07:52;;;;;;;16.67;12.23;;;;;;;;;;4959505;28;20434;-66
2022/12/22 12:10:24;;;;;;;21.10;14.93;;;;;;;;;;4958665;28;20452;-66
2022/12/22 12:12:56;;;;;;;22.77;16.17;;;;;;;;;;4959260;28;20465;-65
2022/12/22 12:15:30;;;;;;;17.83;13.53;;;;;;;;;;4959327;28;20849;-65
2022/12/22 12:18:12;;;;;;;18.63;15.20;;;;;;;;;;4959183;28;20445;-65
2022/12/22 12:20:46;;;;;;;23.97;15.47;;;;;;;;;;4946813;28;20872;-66
2022/12/22 12:23:28;;;;;;;23.43;14.97;;;;;;;;;;4958969;28;20473;-65
2022/12/22 12:25:58;;;;;;;19.90;14.00;;;;;;;;;;4958612;28;20434;-66
2022/12/22 12:28:29;;;;;;;16.50;13.23;;;;;;;;;;4959072;28;20819;-66
2022/12/22 12:30:58;;;;;;;20.53;14.40;;;;;;;;;;4958897;28;20439;-67
2022/12/22 12:33:31;;;;;;;20.07;14.63;;;;;;;;;;4958671;28;20552;-66
2022/12/22 12:36:03;;;;;;;19.90;12.63;;;;;;;;;;4959081;28;20444;-66
2022/12/22 12:38:34;;;;;;;22.17;14.63;;;;;;;;;;4959014;28;20435;-66
2022/12/22 12:41:03;;;;;;;21.63;14.07;;;;;;;;;;4958686;28;20430;-66
2022/12/22 12:43:31;;;;;;;19.70;13.83;;;;;;;;;;4958766;28;20486;-66
2022/12/22 12:46:03;;;;;;;19.30;14.33;;;;;;;;;;4958572;28;20441;-66
2022/12/22 12:48:40;;;;;;;18.40;13.30;;;;;;;;;;4958485;28;20449;-66
2022/12/22 12:51:22;;;;;;;19.20;13.93;;;;;;;;;;4958039;28;20453;-66
2022/12/22 12:54:04;;;;;;;15.60;12.00;;;;;;;;;;4946639;28;20492;-66
2022/12/22 12:59:38;;;;;;;15.77;11.33;;;;;;;;;;5091266;28;20501;-66
2022/12/22 13:02:28;;;;;;;14.93;10.13;;;;;;;;;;5090266;28;20432;-65
2022/12/22 13:05:11;;;;;;;17.02;11.52;;;;;;;;;;5091341;28;20428;-66
2022/12/22 13:07:56;;;;;;;17.63;13.07;;;;;;;;;;5090879;28;20185;-65
2022/12/22 13:10:25;;;;;;;18.17;13.37;;;;;;;;;;5090876;28;20456;-66
2022/12/22 13:12:53;;;;;;;17.50;12.33;;;;;;;;;;5090650;28;20440;-66
2022/12/22 13:15:30;;;;;;;17.40;11.10;;;;;;;;;;5090248;28;20436;-67
2022/12/22 13:17:59;;;;;;;13.67;11.53;;;;;;;;;;5090856;28;20467;-67
2022/12/22 13:20:29;;;;;;;18.10;13.03;;;;;;;;;;5090421;28;20807;-67
2022/12/22 13:22:57;;;;;;;16.33;9.80;;;;;;;;;;5090466;28;20461;-67
2022/12/22 13:25:25;;;;;;;11.85;8.85;;;;;;;;;;5090457;28;20438;-66
2022/12/22 13:27:52;;;;;;;21.80;9.87;;;;;;;;;;5090437;28;20201;-67
2022/12/22 13:30:21;;;;;;;13.93;10.10;;;;;;;;;;5090110;28;20466;-67
2022/12/22 13:32:49;;;;;;;13.70;10.60;;;;;;;;;;5089888;28;20448;-66
2022/12/22 13:35:21;;;;;;;20.00;11.00;;;;;;;;;;5089926;28;20554;-67
2022/12/22 13:37:49;;;;;;;15.37;9.30;;;;;;;;;;5089759;28;20469;-67
2022/12/22 13:40:18;;;;;;;13.30;9.10;;;;;;;;;;5089798;28;20487;-66
2022/12/22 13:42:47;;;;;;;9.80;7.80;;;;;;;;;;5090043;28;20790;-66
2022/12/22 13:45:19;;;;;;;12.20;7.70;;;;;;;;;;5090060;28;20431;-66
2022/12/22 13:47:47;;;;;;;15.33;9.90;;;;;;;;;;5089917;28;20530;-66
2022/12/22 13:50:20;;;;;;;15.50;9.83;;;;;;;;;;5089648;28;20451;-67
2022/12/22 13:52:47;;;;;;;11.97;8.37;;;;;;;;;;5089957;28;20425;-66
2022/12/22 13:55:16;;;;;;;17.90;9.63;;;;;;;;;;5089576;28;20431;-66
2022/12/22 13:57:43;;;;;;;18.90;11.43;;;;;;;;;;5089024;28;20488;-67
2022/12/22 14:00:18;;;;;;;16.20;9.33;;;;;;;;;;5089620;28;20534;-67
2022/12/22 14:02:45;;;;;;;16.53;10.67;;;;;;;;;;5089818;28;20454;-66
2022/12/22 14:05:14;;;;;;;13.90;9.63;;;;;;;;;;5089384;28;20527;-66
2022/12/22 14:07:57;;;;;;;16.50;10.50;;;;;;;;;;5089897;28;20530;-65
2022/12/22 14:10:26;;;;;;;12.77;9.67;;;;;;;;;;5078222;28;20430;-66
2022/12/22 14:12:53;;;;;;;15.37;10.20;;;;;;;;;;5075919;28;20445;-66
2022/12/22 14:15:21;;;;;;;18.80;10.43;;;;;;;;;;5075685;28;20440;-66
2022/12/22 14:17:48;;;;;;;14.67;9.33;;;;;;;;;;5075275;28;20981;-66
2022/12/22 14:20:18;;;;;;;17.27;10.13;;;;;;;;;;5075933;28;20485;-67
2022/12/22 14:22:48;;;;;;;16.00;9.70;;;;;;;;;;5054196;28;20199;-66
2022/12/22 14:25:17;;;;;;;14.00;9.20;;;;;;;;;;5055168;28;20449;-65
2022/12/22 14:27:46;;;;;;;18.23;9.30;;;;;;;;;;5054275;28;20453;-65
2022/12/22 14:30:16;;;;;;;16.00;9.47;;;;;;;;;;5054606;28;20448;-66
2022/12/22 14:32:45;;;;;;;16.10;8.80;;;;;;;;;;5054351;28;20429;-66
2022/12/22 14:35:27;;;;;;;12.57;8.40;;;;;;;;;;5054234;28;20483;-66
2022/12/22 14:38:07;;;;;;;28.57;10.63;;;;;;;;;;5054192;28;20497;-66
2022/12/22 14:40:36;;;;;;;14.32;8.65;;;;;;;;;;5054441;28;20438;-66
2022/12/22 14:43:05;;;;;;;16.90;9.17;;;;;;;;;;5054081;28;20195;-66
2022/12/22 14:45:32;;;;;;;21.10;11.97;;;;;;;;;;5054371;28;20443;-66
2022/12/22 14:47:59;;;;;;;21.47;11.13;;;;;;;;;;5054114;28;20532;-66
2022/12/22 14:50:28;;;;;;;13.97;9.07;;;;;;;;;;5059875;28;20445;-66
2022/12/22 14:52:57;;;;;;;16.93;10.80;;;;;;;;;;5095089;28;20932;-66
2022/12/22 14:55:27;;;;;;;14.37;9.50;;;;;;;;;;5094918;28;20455;-66
2022/12/22 14:57:55;;;;;;;16.20;10.23;;;;;;;;;;5094431;28;20487;-67
2022/12/22 15:00:31;;;;;;;22.08;12.18;;;;;;;;;;5094883;28;20444;-67
2022/12/22 15:02:59;;;;;;;23.97;12.63;;;;;;;;;;5094805;28;20284;-67
2022/12/22 15:05:27;;;;;;;21.93;12.00;;;;;;;;;;5094665;28;20461;-66
2022/12/22 15:07:55;;;;;;;20.60;12.53;;;;;;;;;;5093907;28;20534;-65
2022/12/22 15:10:25;;;;;;;22.60;12.97;;;;;;;;;;5094168;28;20458;-66
2022/12/22 15:12:54;;;;;;;16.95;11.25;;;;;;;;;;5094511;28;20440;-68
2022/12/22 15:15:22;;;;;;;31.20;13.67;;;;;;;;;;5094803;28;20193;-67
2022/12/22 15:17:51;;;;;;;25.63;15.90;;;;;;;;;;5094715;28;20924;-67
2022/12/22 15:20:19;;;;;;;25.95;14.50;;;;;;;;;;5094091;28;20547;-68
2022/12/22 15:22:47;;;;;;;19.90;13.93;;;;;;;;;;5093784;28;20197;-68
2022/12/22 15:25:15;;;;;;;29.80;13.43;;;;;;;;;;5093741;28;20446;-68
2022/12/22 15:27:44;;;;;;;21.80;12.70;;;;;;;;;;5093564;28;20451;-68
2022/12/22 15:30:12;;;;;;;28.93;13.40;;;;;;;;;;5093673;28;20436;-68
2022/12/22 15:32:40;;;;;;;22.40;13.73;;;;;;;;;;5094435;28;20443;-68
2022/12/22 15:35:25;;;;;;;25.40;13.82;;;;;;;;;;5094484;28;20520;-68
2022/12/22 15:37:52;;;;;;;23.50;13.57;;;;;;;;;;5094662;28;20522;-68
2022/12/22 15:40:21;;;;;;;30.07;14.27;;;;;;;;;;5094066;28;20776;-68
2022/12/22 15:42:49;;;;;;;22.83;13.33;;;;;;;;;;5094243;28;20468;-68
2022/12/22 15:45:17;;;;;;;21.90;12.60;;;;;;;;;;5094245;28;20443;-68
2022/12/22 15:47:45;;;;;;;25.70;14.43;;;;;;;;;;5093966;28;20538;-68
2022/12/22 15:50:16;;;;;;;18.50;13.40;;;;;;;;;;5094141;28;20940;-68
2022/12/22 15:52:49;;;;;;;24.37;13.80;;;;;;;;;;5094003;28;20436;-68
2022/12/22 15:55:16;;;;;;;24.50;13.60;;;;;;;;;;5094387;28;20516;-68
2022/12/22 15:57:44;;;;;;;22.90;14.43;;;;;;;;;;5093592;28;20968;-68
2022/12/22 16:00:14;;;;;;;26.90;14.93;;;;;;;;;;5093989;28;20760;-68
2022/12/22 16:02:41;;;;;;;23.70;15.00;;;;;;;;;;5093517;28;20443;-68
2022/12/22 16:05:08;;;;;;;34.17;14.67;;;;;;;;;;5094465;28;20439;-68
2022/12/22 16:07:36;;;;;;;26.40;15.17;;;;;;;;;;5093476;28;20447;-68
2022/12/22 16:10:03;;;;;;;24.60;15.53;;;;;;;;;;5093793;28;20526;-67
2022/12/22 16:12:31;;;;;;;28.45;16.17;;;;;;;;;;5093826;28;20442;-67
2022/12/22 16:14:58;;;;;;;34.80;16.03;;;;;;;;;;5093483;28;20335;-65
2022/12/22 16:17:28;;;;;;;32.90;17.00;;;;;;;;;;5093841;28;20472;-67
2022/12/22 16:19:55;;;;;;;30.80;18.27;;;;;;;;;;5091082;28;20487;-65
2022/12/22 16:22:29;;;;;;;30.30;19.52;;;;;;;;;;5073969;28;20874;-71
2022/12/22 16:24:56;;;;;;;28.47;18.53;;;;;;;;;;5073305;28;20186;-66
2022/12/22 16:27:24;;;;;;;24.30;17.20;;;;;;;;;;5072402;28;20945;-67
2022/12/22 16:29:53;;;;;;;30.73;17.58;;;;;;;;;;5072550;28;20524;-66
2022/12/22 16:32:24;;;;;;;31.03;20.20;;;;;;;;;;5072605;28;20281;-67
2022/12/22 16:34:52;;;;;;;32.63;19.20;;;;;;;;;;5072942;28;20440;-66
2022/12/22 16:37:19;;;;;;;30.45;18.75;;;;;;;;;;5073535;28;20442;-67
2022/12/22 16:39:47;;;;;;;30.83;17.70;;;;;;;;;;5072608;28;20220;-68
2022/12/22 16:42:15;;;;;;;31.73;19.03;;;;;;;;;;5073300;28;20444;-68
2022/12/22 16:44:43;;;;;;;32.07;20.80;;;;;;;;;;5072994;28;20437;-68
2022/12/22 16:47:16;;;;;;;31.07;20.63;;;;;;;;;;5072789;28;20444;-67
2022/12/22 16:49:44;;;;;;;27.73;21.03;;;;;;;;;;5073244;28;20436;-67
2022/12/22 16:52:16;;;;;;;33.35;21.02;;;;;;;;;;5072798;28;20807;-67
2022/12/22 16:54:43;;;;;;;31.30;20.67;;;;;;;;;;5073010;28;20183;-67
2022/12/22 16:57:10;;;;;;;34.57;22.93;;;;;;;;;;5072788;28;20440;-67
2022/12/22 16:59:38;;;;;;;31.00;23.20;;;;;;;;;;5072803;28;20474;-67
2022/12/22 17:02:05;;;;;;;28.77;21.60;;;;;;;;;;5072638;28;20447;-66
2022/12/22 17:04:33;;;;;;;35.40;23.90;;;;;;;;;;5073260;28;20458;-66
2022/12/22 17:07:01;;;;;;;35.83;24.10;;;;;;;;;;5072634;28;20765;-67
2022/12/22 17:09:32;;;;;;;36.63;24.05;;;;;;;;;;5072738;28;20446;-66
2022/12/22 17:12:00;;;;;;;31.73;24.17;;;;;;;;;;5072432;28;20202;-67
2022/12/22 17:14:28;;;;;;;39.80;25.37;;;;;;;;;;5072704;28;20484;-66
2022/12/22 17:16:56;;;;;;;34.25;23.35;;;;;;;;;;5072740;28;20441;-67
2022/12/22 17:19:23;;;;;;;35.78;23.55;;;;;;;;;;5072582;28;20222;-66
2022/12/22 17:21:52;;;;;;;31.83;22.93;;;;;;;;;;5072976;28;20201;-67
2022/12/22 17:24:20;;;;;;;34.90;25.37;;;;;;;;;;5072252;28;20527;-66
2022/12/22 17:26:48;;;;;;;34.13;25.58;;;;;;;;;;5072990;28;20781;-67
2022/12/22 17:29:17;;;;;;;53.47;39.93;;;;;;;;;;5072191;28;20209;-67
2022/12/22 17:31:44;;;;;;;39.70;27.73;;;;;;;;;;5072387;28;20934;-67
2022/12/22 17:34:13;;;;;;;37.57;24.20;;;;;;;;;;5072577;28;20441;-66
2022/12/22 17:36:41;;;;;;;38.87;25.10;;;;;;;;;;5072730;28;20472;-67
2022/12/22 17:39:10;;;;;;;36.77;23.57;;;;;;;;;;5072781;28;20472;-67
2022/12/22 17:41:37;;;;;;;35.70;22.92;;;;;;;;;;5072149;28;20444;-68
2022/12/22 17:44:06;;;;;;;35.10;24.63;;;;;;;;;;5072831;28;20205;-68
2022/12/22 17:46:33;;;;;;;34.90;24.60;;;;;;;;;;5076368;28;20438;-67
2022/12/22 17:49:01;;;;;;;41.20;24.40;;;;;;;;;;5075822;28;20444;-67
2022/12/22 17:51:29;;;;;;;35.80;24.20;;;;;;;;;;5076271;28;20441;-67
2022/12/22 17:53:57;;;;;;;38.27;23.40;;;;;;;;;;5076332;28;20440;-67
2022/12/22 17:56:26;;;;;;;34.67;24.23;;;;;;;;;;5075819;28;20455;-67
2022/12/22 17:58:53;;;;;;;41.70;24.77;;;;;;;;;;5075685;28;20238;-68
2022/12/22 18:01:23;;;;;;;30.60;22.63;;;;;;;;;;5076062;28;20444;-67
2022/12/22 18:03:51;;;;;;;37.80;24.00;;;;;;;;;;5076498;28;20435;-67
2022/12/22 18:06:19;;;;;;;48.40;25.47;;;;;;;;;;5075964;28;20480;-67
2022/12/22 18:08:46;;;;;;;35.97;22.43;;;;;;;;;;5075203;28;20930;-67
2022/12/22 18:11:14;;;;;;;36.30;23.77;;;;;;;;;;5074467;28;20524;-66
2022/12/22 18:13:41;;;;;;;42.93;24.53;;;;;;;;;;5075355;28;20436;-69